Time;durP1;ratioP1;P1;durP2;ratioP2;P2;SDS_P1;SDS_P2;PMS_P1;PMS_P2;Temp;Humidity;BMP_temperature;BMP_pressure;BME280_temperature;BME280_humidity;BME280_pressure;Samples;Min_cycle;Max_cycle;Signal;HPM_P1;HPM_P2
2022/01/29 00:00:30;;;;;;;23.93;13.50;;;6.20;99.90;;;;;;2612438;47;20179;-77
2022/01/29 00:02:56;;;;;;;20.23;10.27;;;6.20;99.90;;;;;;2612834;54;21942;-78
2022/01/29 00:05:22;;;;;;;18.50;11.93;;;6.20;99.90;;;;;;2613024;54;20188;-77
2022/01/29 00:07:48;;;;;;;20.27;13.07;;;6.20;99.90;;;;;;2612888;47;20266;-78
2022/01/29 00:10:14;;;;;;;19.17;13.47;;;6.20;99.90;;;;;;2613143;54;20325;-79
2022/01/29 00:12:40;;;;;;;20.13;13.10;;;6.20;99.90;;;;;;2612781;39;20532;-78
2022/01/29 00:15:07;;;;;;;16.57;12.70;;;6.20;99.90;;;;;;2612600;50;20435;-78
2022/01/29 00:17:33;;;;;;;20.57;13.73;;;6.20;99.90;;;;;;2613468;54;20422;-78
2022/01/29 00:19:59;;;;;;;21.00;12.83;;;6.20;99.90;;;;;;2613086;54;21342;-77
2022/01/29 00:22:25;;;;;;;23.03;13.30;;;6.20;99.90;;;;;;2612736;50;20415;-78
2022/01/29 00:24:51;;;;;;;21.27;13.90;;;6.10;99.90;;;;;;2612794;47;20169;-77
2022/01/29 00:27:20;;;;;;;18.80;11.57;;;6.20;99.90;;;;;;2613831;54;20412;-78
2022/01/29 00:29:46;;;;;;;21.10;12.33;;;6.10;99.90;;;;;;2613048;47;20507;-78
2022/01/29 00:32:12;;;;;;;21.17;12.00;;;6.10;99.90;;;;;;2613869;39;22069;-78
2022/01/29 00:34:39;;;;;;;30.60;19.50;;;6.10;99.90;;;;;;2613482;54;20158;-77
2022/01/29 00:37:06;;;;;;;24.53;13.53;;;6.10;99.90;;;;;;2613887;54;20420;-77
2022/01/29 00:39:32;;;;;;;38.53;17.07;;;6.10;99.90;;;;;;2613757;47;20420;-78
2022/01/29 00:42:00;;;;;;;25.43;13.67;;;6.20;99.90;;;;;;2613209;47;20876;-77
2022/01/29 00:44:26;;;;;;;24.03;13.73;;;6.20;99.90;;;;;;2613132;54;20423;-77
2022/01/29 00:46:52;;;;;;;34.63;19.40;;;6.10;99.90;;;;;;2613971;46;20428;-78
2022/01/29 00:49:18;;;;;;;28.13;18.63;;;6.10;99.90;;;;;;2614360;54;20447;-77
2022/01/29 00:51:43;;;;;;;27.10;14.63;;;6.10;99.90;;;;;;2613790;47;20165;-77
2022/01/29 00:54:09;;;;;;;32.37;19.23;;;6.10;99.90;;;;;;2615663;39;20572;-79
2022/01/29 00:56:36;;;;;;;29.50;17.67;;;6.10;99.90;;;;;;2613902;47;20174;-78
2022/01/29 00:59:02;;;;;;;22.63;14.17;;;6.20;99.90;;;;;;2613707;54;20971;-79
2022/01/29 01:01:29;;;;;;;27.60;17.67;;;6.10;99.90;;;;;;2614562;54;20403;-77
2022/01/29 01:03:55;;;;;;;33.53;18.40;;;6.10;99.90;;;;;;2615658;54;20411;-78
2022/01/29 01:06:21;;;;;;;32.83;15.17;;;6.20;99.90;;;;;;2614749;47;20462;-79
2022/01/29 01:08:46;;;;;;;30.73;17.80;;;6.20;99.90;;;;;;2615772;54;20242;-77
2022/01/29 01:11:12;;;;;;;29.73;18.60;;;6.20;99.90;;;;;;2614359;54;20185;-77
2022/01/29 01:13:38;;;;;;;36.50;19.27;;;6.20;99.90;;;;;;2613152;54;20158;-78
2022/01/29 01:16:04;;;;;;;28.57;17.90;;;6.30;99.90;;;;;;2613503;47;20277;-79
2022/01/29 01:18:30;;;;;;;32.07;17.40;;;6.30;99.90;;;;;;2614138;54;20940;-77
2022/01/29 01:20:56;;;;;;;21.67;12.67;;;6.30;99.90;;;;;;2615841;54;20427;-78
2022/01/29 01:23:22;;;;;;;27.07;17.03;;;6.30;99.90;;;;;;2615218;54;20277;-78
2022/01/29 01:25:49;;;;;;;21.90;14.63;;;6.30;99.90;;;;;;2615211;54;20143;-79
2022/01/29 01:28:15;;;;;;;27.70;12.80;;;6.20;99.90;;;;;;2614603;39;21055;-78
2022/01/29 01:30:42;;;;;;;17.83;12.70;;;6.20;99.90;;;;;;2615807;39;20988;-78
2022/01/29 01:33:08;;;;;;;38.37;20.53;;;6.20;99.90;;;;;;2615640;54;20494;-78
2022/01/29 01:35:40;;;;;;;39.40;22.00;;;6.20;99.90;;;;;;2615687;47;20416;-78
2022/01/29 01:38:23;;;;;;;29.20;20.27;;;6.20;99.90;;;;;;2613587;54;20415;-78
2022/01/29 01:40:54;;;;;;;30.73;17.80;;;6.20;99.90;;;;;;2613813;47;20436;-78
2022/01/29 01:43:20;;;;;;;38.47;22.13;;;6.20;99.90;;;;;;2613449;54;20419;-79
2022/01/29 01:45:46;;;;;;;33.40;19.47;;;6.30;99.90;;;;;;2613578;47;20521;-78
2022/01/29 01:48:13;;;;;;;32.23;15.03;;;6.30;99.90;;;;;;2614138;39;20786;-78
2022/01/29 01:50:39;;;;;;;23.57;17.13;;;6.30;99.90;;;;;;2615087;54;20186;-78
2022/01/29 01:53:05;;;;;;;38.10;19.60;;;6.30;99.90;;;;;;2614091;47;20443;-78
2022/01/29 01:55:32;;;;;;;34.57;20.70;;;6.30;99.90;;;;;;2613981;51;20538;-79
2022/01/29 01:58:00;;;;;;;34.67;20.80;;;6.30;99.90;;;;;;2614360;47;20419;-79
2022/01/29 02:00:27;;;;;;;22.60;16.33;;;6.40;99.90;;;;;;2614637;39;20825;-78
2022/01/29 02:02:53;;;;;;;35.87;21.23;;;6.40;99.90;;;;;;2613769;47;20418;-78
2022/01/29 02:05:19;;;;;;;31.30;19.60;;;6.40;99.90;;;;;;2614498;54;20459;-78
2022/01/29 02:07:46;;;;;;;31.03;17.07;;;6.30;99.90;;;;;;2615112;46;20952;-78
2022/01/29 02:10:13;;;;;;;33.83;20.70;;;6.30;99.90;;;;;;2615968;54;20958;-78
2022/01/29 02:12:56;;;;;;;32.97;20.30;;;6.30;99.90;;;;;;2614229;47;20411;-78
2022/01/29 02:15:22;;;;;;;28.17;15.73;;;6.30;99.90;;;;;;2613916;54;20546;-78
2022/01/29 02:17:50;;;;;;;30.10;18.20;;;6.30;99.90;;;;;;2614081;46;20416;-79
2022/01/29 02:20:22;;;;;;;26.30;12.33;;;6.20;99.90;;;;;;2613773;47;20459;-77
2022/01/29 02:22:48;;;;;;;33.90;17.80;;;6.20;99.90;;;;;;2615986;54;20515;-77
2022/01/29 02:25:36;;;;;;;33.30;18.97;;;6.30;99.90;;;;;;2616085;54;20411;-77
2022/01/29 02:28:09;;;;;;;31.30;20.20;;;6.30;99.90;;;;;;2615660;39;20722;-77
2022/01/29 02:30:38;;;;;;;31.97;20.17;;;6.30;99.90;;;;;;2615425;47;20438;-76
2022/01/29 02:33:09;;;;;;;34.77;15.33;;;6.30;99.90;;;;;;2615667;54;20432;-78
2022/01/29 02:35:41;;;;;;;30.87;16.37;;;6.30;99.90;;;;;;2614936;54;20421;-77
2022/01/29 02:38:08;;;;;;;44.90;19.13;;;6.30;99.90;;;;;;2613932;47;20423;-77
2022/01/29 02:40:43;;;;;;;37.80;22.00;;;6.30;99.90;;;;;;2615329;54;20391;-78
2022/01/29 02:43:11;;;;;;;34.23;21.40;;;6.30;99.90;;;;;;2614555;47;20407;-77
2022/01/29 02:45:37;;;;;;;31.03;20.07;;;6.30;99.90;;;;;;2615155;54;20400;-77
2022/01/29 02:48:04;;;;;;;36.40;19.90;;;6.30;99.90;;;;;;2612836;54;21048;-78
2022/01/29 02:50:30;;;;;;;29.43;15.20;;;6.20;99.90;;;;;;2615712;47;20420;-76
2022/01/29 02:52:55;;;;;;;29.00;15.93;;;6.10;99.90;;;;;;2616276;47;20427;-76
2022/01/29 02:55:21;;;;;;;38.77;20.57;;;6.10;99.90;;;;;;2616226;47;20190;-77
2022/01/29 02:57:47;;;;;;;31.77;18.83;;;6.10;99.90;;;;;;2615992;39;20602;-75
2022/01/29 03:00:13;;;;;;;29.40;20.70;;;6.10;99.90;;;;;;2614649;54;20407;-77
2022/01/29 03:02:39;;;;;;;28.53;15.90;;;6.20;99.90;;;;;;2614268;46;20151;-76
2022/01/29 03:05:05;;;;;;;33.80;16.57;;;6.20;99.90;;;;;;2615066;47;20504;-77
2022/01/29 03:07:31;;;;;;;23.43;13.47;;;6.20;99.90;;;;;;2612393;47;22112;-78
2022/01/29 03:09:57;;;;;;;27.43;19.40;;;6.10;99.90;;;;;;2616298;50;21006;-77
2022/01/29 03:12:23;;;;;;;34.23;23.80;;;6.10;99.90;;;;;;2613511;54;20416;-76
2022/01/29 03:14:49;;;;;;;31.43;22.00;;;6.10;99.90;;;;;;2614978;54;20183;-77
2022/01/29 03:17:14;;;;;;;27.27;17.10;;;6.10;99.90;;;;;;2615902;47;20171;-77
2022/01/29 03:19:41;;;;;;;28.67;15.60;;;6.20;99.90;;;;;;2615525;47;20162;-77
2022/01/29 03:22:07;;;;;;;25.37;14.60;;;6.20;99.90;;;;;;2615220;47;20188;-76
2022/01/29 03:24:33;;;;;;;30.07;17.70;;;6.20;99.90;;;;;;2615290;47;20921;-77
2022/01/29 03:26:59;;;;;;;33.47;18.83;;;6.20;99.90;;;;;;2614327;54;20209;-78
2022/01/29 03:29:24;;;;;;;28.50;17.03;;;6.30;99.90;;;;;;2614212;54;20178;-78
2022/01/29 03:31:50;;;;;;;23.47;14.77;;;6.30;99.90;;;;;;2613511;54;20810;-77
2022/01/29 03:34:16;;;;;;;32.37;18.30;;;6.30;99.90;;;;;;2614867;39;20541;-76
2022/01/29 03:36:41;;;;;;;26.30;17.17;;;6.40;99.90;;;;;;2612950;54;20166;-77
2022/01/29 03:39:07;;;;;;;32.77;21.90;;;6.30;99.90;;;;;;2613423;47;20170;-77
2022/01/29 03:41:34;;;;;;;22.63;15.40;;;6.30;99.90;;;;;;2615604;39;20582;-77
2022/01/29 03:44:04;;;;;;;27.03;18.67;;;6.30;99.90;;;;;;2613688;54;20181;-77
2022/01/29 03:46:32;;;;;;;34.43;20.03;;;6.30;99.90;;;;;;2612812;54;20427;-77
2022/01/29 03:48:57;;;;;;;28.63;19.23;;;6.30;99.90;;;;;;2613366;54;20412;-78
2022/01/29 03:51:23;;;;;;;31.37;16.00;;;6.30;99.90;;;;;;2613955;47;20460;-77
2022/01/29 03:53:49;;;;;;;27.17;15.90;;;6.30;99.90;;;;;;2615775;54;20491;-76
2022/01/29 03:56:15;;;;;;;33.20;19.57;;;6.30;99.90;;;;;;2616353;47;20278;-77
2022/01/29 03:58:43;;;;;;;27.83;17.90;;;6.30;99.90;;;;;;2614803;47;20173;-78
2022/01/29 04:01:09;;;;;;;32.30;18.33;;;6.40;99.90;;;;;;2613999;54;20506;-78
2022/01/29 04:03:35;;;;;;;32.03;18.33;;;6.40;99.90;;;;;;2615343;54;20403;-78
2022/01/29 04:06:01;;;;;;;27.63;16.03;;;6.40;99.90;;;;;;2615656;47;20407;-77
2022/01/29 04:08:27;;;;;;;27.90;18.53;;;6.40;99.90;;;;;;2615499;54;20423;-77
2022/01/29 04:10:53;;;;;;;26.27;16.50;;;6.30;99.90;;;;;;2612254;47;20515;-77
2022/01/29 04:13:24;;;;;;;35.43;18.30;;;6.20;99.90;;;;;;2612133;54;20454;-77
2022/01/29 04:15:50;;;;;;;33.50;18.73;;;6.20;99.90;;;;;;2614218;39;20575;-78
2022/01/29 04:18:18;;;;;;;24.37;15.67;;;6.10;99.90;;;;;;2614236;46;20426;-77
2022/01/29 04:20:44;;;;;;;29.40;18.27;;;6.20;99.90;;;;;;2613210;54;20523;-77
2022/01/29 04:23:10;;;;;;;15.70;12.53;;;6.20;99.90;;;;;;2612815;54;20848;-79
2022/01/29 04:25:36;;;;;;;16.60;12.80;;;6.10;99.90;;;;;;2613668;39;20946;-76
2022/01/29 04:28:03;;;;;;;21.40;15.67;;;6.10;99.90;;;;;;2612585;54;20426;-76
2022/01/29 04:30:33;;;;;;;26.20;19.00;;;6.10;99.90;;;;;;2612280;54;20430;-76
2022/01/29 04:35:27;;;;;;;29.03;17.93;;;6.10;99.90;;;;;;2612943;47;21010;-77
2022/01/29 04:37:53;;;;;;;22.77;14.93;;;6.20;99.90;;;;;;2616840;39;20825;-77
2022/01/29 04:40:19;;;;;;;27.37;20.50;;;6.10;99.90;;;;;;2614475;46;20523;-77
2022/01/29 04:42:45;;;;;;;23.07;16.60;;;6.20;99.90;;;;;;2613075;46;20671;-79
2022/01/29 04:45:12;;;;;;;36.07;20.47;;;6.20;99.90;;;;;;2613645;54;20419;-77
2022/01/29 04:47:37;;;;;;;21.67;13.07;;;6.10;99.90;;;;;;2614623;54;20411;-78
2022/01/29 04:50:05;;;;;;;17.03;13.67;;;6.20;99.90;;;;;;2612838;39;20777;-77
2022/01/29 04:52:30;;;;;;;33.27;20.00;;;6.20;99.90;;;;;;2612618;39;20705;-77
2022/01/29 04:54:56;;;;;;;29.40;19.67;;;6.20;99.90;;;;;;2613099;54;20403;-79
2022/01/29 04:57:22;;;;;;;20.13;12.50;;;6.20;99.90;;;;;;2612415;47;20431;-78
2022/01/29 04:59:48;;;;;;;21.80;16.37;;;6.20;99.90;;;;;;2613371;54;20185;-79
2022/01/29 05:02:13;;;;;;;27.80;18.40;;;6.20;99.90;;;;;;2612497;54;20151;-78
2022/01/29 05:04:40;;;;;;;32.30;18.20;;;6.30;99.90;;;;;;2612647;50;20258;-79
2022/01/29 05:07:06;;;;;;;18.37;14.77;;;6.20;99.90;;;;;;2613802;39;20567;-78
2022/01/29 05:09:32;;;;;;;21.37;17.97;;;6.20;99.90;;;;;;2612712;47;20536;-78
2022/01/29 05:12:00;;;;;;;22.10;15.87;;;6.30;99.90;;;;;;2611830;47;20181;-79
2022/01/29 05:14:39;;;;;;;27.77;17.07;;;6.30;99.90;;;;;;2612060;47;20412;-79
2022/01/29 05:27:54;;;;;;;18.03;13.73;;;6.40;99.90;;;;;;2612402;47;20436;-76
2022/01/29 05:30:19;;;;;;;23.77;15.73;;;6.40;99.90;;;;;;2612203;54;20518;-77
2022/01/29 05:32:46;;;;;;;18.53;14.10;;;6.40;99.90;;;;;;2611527;47;20218;-76
2022/01/29 05:35:12;;;;;;;25.20;14.87;;;6.40;99.90;;;;;;2611967;39;21066;-76
2022/01/29 05:37:38;;;;;;;19.20;14.43;;;6.40;99.90;;;;;;2614744;54;20415;-77
2022/01/29 05:40:04;;;;;;;18.17;14.43;;;6.40;99.90;;;;;;2614029;54;20259;-77
2022/01/29 05:42:31;;;;;;;29.80;16.83;;;6.50;99.90;;;;;;2615197;54;20155;-77
2022/01/29 05:44:56;;;;;;;15.47;11.70;;;6.50;99.90;;;;;;2611968;54;20467;-76
2022/01/29 05:47:22;;;;;;;16.00;12.80;;;6.50;99.90;;;;;;2611635;54;20924;-76
2022/01/29 05:49:48;;;;;;;15.77;13.90;;;6.50;99.90;;;;;;2612107;39;20539;-77
2022/01/29 05:52:14;;;;;;;21.73;15.73;;;6.50;99.90;;;;;;2611403;46;20533;-77
2022/01/29 05:54:39;;;;;;;20.00;15.30;;;6.60;99.90;;;;;;2611824;47;20163;-77
2022/01/29 05:57:05;;;;;;;11.80;9.70;;;6.60;99.90;;;;;;2613100;47;20162;-77
2022/01/29 05:59:34;;;;;;;15.77;11.90;;;6.60;99.90;;;;;;2612988;54;20698;-76
2022/01/29 06:02:02;;;;;;;20.60;15.30;;;6.60;99.90;;;;;;2612155;47;20209;-77
2022/01/29 06:04:27;;;;;;;17.03;13.27;;;6.60;99.90;;;;;;2612180;54;20400;-77
2022/01/29 06:06:53;;;;;;;17.47;13.97;;;6.60;99.90;;;;;;2611795;47;21251;-78
2022/01/29 06:09:20;;;;;;;19.07;13.70;;;6.60;99.90;;;;;;2612143;54;20147;-78
2022/01/29 06:11:46;;;;;;;20.23;14.00;;;6.70;99.90;;;;;;2611294;54;20162;-78
2022/01/29 06:14:12;;;;;;;16.40;11.67;;;6.60;99.90;;;;;;2611890;39;20922;-78
2022/01/29 06:16:38;;;;;;;20.00;14.73;;;6.70;99.90;;;;;;2612336;47;20190;-77
2022/01/29 06:19:04;;;;;;;21.40;17.70;;;6.70;99.90;;;;;;2611631;54;20412;-78
2022/01/29 06:21:30;;;;;;;28.10;16.23;;;6.70;99.90;;;;;;2612334;39;20801;-78
2022/01/29 06:23:57;;;;;;;20.10;16.20;;;6.80;99.90;;;;;;2611582;47;20446;-78
2022/01/29 06:26:23;;;;;;;16.47;11.97;;;6.70;99.90;;;;;;2612171;54;20157;-77
2022/01/29 06:28:49;;;;;;;18.20;12.57;;;6.70;99.90;;;;;;2613185;54;20412;-76
2022/01/29 06:31:15;;;;;;;12.98;10.50;;;6.80;99.90;;;;;;2615616;54;20435;-78
2022/01/29 06:33:40;;;;;;;22.90;15.70;;;6.80;99.90;;;;;;2614790;54;20167;-77
2022/01/29 06:36:06;;;;;;;18.80;14.27;;;6.80;99.90;;;;;;2615294;46;20771;-77
2022/01/29 06:38:32;;;;;;;18.90;14.00;;;6.80;99.90;;;;;;2612708;54;20158;-76
2022/01/29 06:40:58;;;;;;;15.27;13.07;;;6.80;99.90;;;;;;2613333;47;20508;-77
2022/01/29 06:43:24;;;;;;;15.20;13.30;;;6.80;99.90;;;;;;2613585;54;20151;-77
2022/01/29 06:45:50;;;;;;;27.47;15.50;;;6.80;99.90;;;;;;2612089;47;20959;-77
2022/01/29 06:48:15;;;;;;;20.47;15.60;;;6.80;99.90;;;;;;2613921;39;20712;-78
2022/01/29 06:50:41;;;;;;;23.23;15.77;;;6.80;99.90;;;;;;2613548;54;20142;-77
2022/01/29 06:53:08;;;;;;;17.37;12.90;;;6.90;99.90;;;;;;2614409;47;20317;-78
2022/01/29 06:55:34;;;;;;;20.97;16.40;;;6.80;99.90;;;;;;2613207;54;20427;-78
2022/01/29 06:58:01;;;;;;;18.40;14.90;;;6.90;99.90;;;;;;2612243;39;20943;-78
2022/01/29 07:00:27;;;;;;;19.37;13.60;;;6.90;99.90;;;;;;2612477;54;20439;-78
2022/01/29 07:02:54;;;;;;;16.47;14.70;;;6.90;99.90;;;;;;2612714;54;20474;-77
2022/01/29 07:05:19;;;;;;;12.27;11.07;;;6.90;99.90;;;;;;2612461;47;20675;-77
2022/01/29 07:07:45;;;;;;;25.10;15.30;;;6.90;99.90;;;;;;2611988;54;20446;-78
2022/01/29 07:10:11;;;;;;;23.00;16.50;;;7.00;99.90;;;;;;2612917;54;20143;-79
2022/01/29 07:12:38;;;;;;;16.00;14.23;;;7.00;99.90;;;;;;2610379;47;20647;-78
2022/01/29 07:15:09;;;;;;;17.57;14.20;;;7.00;99.90;;;;;;2611117;54;20450;-78
2022/01/29 07:17:35;;;;;;;22.87;17.17;;;7.00;99.90;;;;;;2612264;39;20866;-78
2022/01/29 07:20:02;;;;;;;15.67;13.20;;;7.10;99.90;;;;;;2610818;54;20427;-78
2022/01/29 07:22:28;;;;;;;18.70;15.00;;;7.10;99.90;;;;;;2610838;47;20424;-79
2022/01/29 07:24:53;;;;;;;26.77;18.23;;;7.10;99.90;;;;;;2610248;54;20805;-78
2022/01/29 07:27:20;;;;;;;22.10;16.07;;;7.20;99.90;;;;;;2610964;51;20295;-77
2022/01/29 07:29:46;;;;;;;15.87;14.07;;;7.20;99.90;;;;;;2611605;54;20173;-78
2022/01/29 07:32:12;;;;;;;23.23;13.13;;;7.10;99.90;;;;;;2611458;47;21101;-78
2022/01/29 07:34:37;;;;;;;19.00;14.23;;;7.10;99.90;;;;;;2610556;47;20178;-78
2022/01/29 07:37:04;;;;;;;23.67;16.80;;;7.10;99.90;;;;;;2611803;39;20577;-79
2022/01/29 07:39:31;;;;;;;26.93;16.30;;;7.10;99.90;;;;;;2610212;47;20658;-78
2022/01/29 07:41:57;;;;;;;25.87;17.17;;;7.20;99.90;;;;;;2612130;54;20411;-79
2022/01/29 07:44:23;;;;;;;22.43;17.60;;;7.20;99.90;;;;;;2611371;47;20436;-78
2022/01/29 07:46:50;;;;;;;27.97;20.37;;;7.20;99.90;;;;;;2609590;54;21141;-77
2022/01/29 07:49:16;;;;;;;25.10;18.70;;;7.30;99.90;;;;;;2609664;51;20538;-78
2022/01/29 07:51:42;;;;;;;21.47;16.93;;;7.30;99.90;;;;;;2607822;47;20423;-79
2022/01/29 07:54:08;;;;;;;24.60;17.83;;;7.30;99.90;;;;;;2610032;54;20983;-79
2022/01/29 07:56:34;;;;;;;24.43;17.10;;;7.30;99.90;;;;;;2611206;54;20436;-80
2022/01/29 07:59:01;;;;;;;31.80;18.70;;;7.40;99.90;;;;;;2609800;54;20163;-78
2022/01/29 08:01:27;;;;;;;26.10;19.80;;;7.40;99.90;;;;;;2611836;47;20423;-78
2022/01/29 08:03:53;;;;;;;30.83;19.47;;;7.40;99.90;;;;;;2614657;39;20834;-79
2022/01/29 08:06:26;;;;;;;37.17;22.90;;;7.40;99.90;;;;;;2613900;54;20427;-79
2022/01/29 08:08:52;;;;;;;17.53;13.90;;;7.50;99.90;;;;;;2612303;54;20968;-78
2022/01/29 08:11:19;;;;;;;17.80;14.90;;;7.50;99.90;;;;;;2612556;54;20461;-80
2022/01/29 08:13:47;;;;;;;27.43;19.13;;;7.50;99.90;;;;;;2612135;54;20415;-79
2022/01/29 08:16:14;;;;;;;21.73;17.03;;;7.60;99.90;;;;;;2611018;54;20436;-79
2022/01/29 08:18:42;;;;;;;25.57;17.27;;;7.60;99.90;;;;;;2611879;54;20440;-78
2022/01/29 08:21:08;;;;;;;22.00;15.00;;;7.60;99.90;;;;;;2611862;47;21063;-79
2022/01/29 08:23:34;;;;;;;23.47;17.70;;;7.70;99.90;;;;;;2612565;54;20423;-78
2022/01/29 08:26:00;;;;;;;24.03;15.20;;;7.70;99.90;;;;;;2612144;54;20412;-78
2022/01/29 08:28:26;;;;;;;21.40;16.60;;;7.80;99.90;;;;;;2612141;51;20165;-78
2022/01/29 08:30:51;;;;;;;20.67;14.90;;;7.80;99.90;;;;;;2612972;39;21399;-81
2022/01/29 08:33:18;;;;;;;25.37;17.37;;;7.80;99.90;;;;;;2612051;47;20170;-79
2022/01/29 08:35:47;;;;;;;23.37;16.10;;;7.90;99.90;;;;;;2613368;39;20687;-77
2022/01/29 08:38:16;;;;;;;28.93;17.70;;;7.90;99.90;;;;;;2613424;54;20566;-78
2022/01/29 08:40:42;;;;;;;21.53;15.00;;;7.90;99.90;;;;;;2612878;54;20403;-78
2022/01/29 08:43:09;;;;;;;16.40;13.00;;;7.90;99.90;;;;;;2611474;54;20406;-79
2022/01/29 08:45:35;;;;;;;22.63;17.30;;;7.90;99.90;;;;;;2613528;47;20860;-79
2022/01/29 08:48:01;;;;;;;18.93;14.87;;;7.90;99.90;;;;;;2611532;54;20417;-80
2022/01/29 08:50:28;;;;;;;26.77;18.50;;;8.00;99.90;;;;;;2612638;54;21301;-78
2022/01/29 08:52:54;;;;;;;21.23;15.47;;;7.90;99.90;;;;;;2613285;39;20805;-78
2022/01/29 08:55:21;;;;;;;20.67;14.50;;;7.90;99.90;;;;;;2611756;47;20535;-79
2022/01/29 08:57:47;;;;;;;21.20;16.37;;;7.90;99.90;;;;;;2611837;54;20443;-79
2022/01/29 09:00:13;;;;;;;17.03;12.63;;;7.90;99.90;;;;;;2612833;47;20454;-79
2022/01/29 09:02:41;;;;;;;19.67;16.77;;;7.90;99.90;;;;;;2613182;54;20495;-79
2022/01/29 09:05:07;;;;;;;24.10;15.90;;;7.90;99.90;;;;;;2612498;47;20454;-79
2022/01/29 09:07:33;;;;;;;16.77;14.20;;;7.90;99.90;;;;;;2610956;47;20470;-79
2022/01/29 09:09:59;;;;;;;19.70;13.77;;;7.90;99.90;;;;;;2611790;47;20419;-79
2022/01/29 09:12:25;;;;;;;17.77;13.93;;;7.90;99.90;;;;;;2611137;46;20509;-78
2022/01/29 09:14:52;;;;;;;18.53;13.00;;;7.90;99.90;;;;;;2614611;47;20426;-78
2022/01/29 09:17:18;;;;;;;16.00;12.90;;;7.90;99.90;;;;;;2610714;47;20164;-79
2022/01/29 09:19:44;;;;;;;20.33;13.43;;;7.90;99.90;;;;;;2611028;47;20511;-79
2022/01/29 09:22:09;;;;;;;23.00;16.77;;;7.90;99.90;;;;;;2613618;54;20170;-79
2022/01/29 09:24:36;;;;;;;15.90;12.53;;;7.90;99.90;;;;;;2613006;54;20423;-79
2022/01/29 09:27:03;;;;;;;17.90;12.70;;;8.00;99.90;;;;;;2613742;54;20142;-79
2022/01/29 09:29:28;;;;;;;16.83;12.90;;;8.00;99.90;;;;;;2612570;47;20427;-80
2022/01/29 09:31:54;;;;;;;16.10;12.93;;;8.00;99.90;;;;;;2614318;47;20434;-79
2022/01/29 09:34:20;;;;;;;26.57;14.20;;;8.00;99.90;;;;;;2614627;54;20383;-80
2022/01/29 09:36:46;;;;;;;21.77;13.60;;;8.00;99.90;;;;;;2614808;54;20297;-79
2022/01/29 09:39:12;;;;;;;17.60;11.83;;;8.10;99.90;;;;;;2615296;54;20213;-79
2022/01/29 09:41:44;;;;;;;20.27;15.10;;;8.10;99.90;;;;;;2613208;54;20154;-79
2022/01/29 09:44:10;;;;;;;28.30;16.20;;;8.10;99.90;;;;;;2612784;54;20277;-78
2022/01/29 09:46:39;;;;;;;20.20;13.33;;;8.20;99.90;;;;;;2613544;39;20514;-79
2022/01/29 09:49:05;;;;;;;20.43;14.03;;;8.20;99.90;;;;;;2610050;54;20165;-78
2022/01/29 09:51:31;;;;;;;18.63;14.13;;;8.20;99.90;;;;;;2611884;54;20951;-79
2022/01/29 09:53:57;;;;;;;24.43;15.40;;;8.20;99.90;;;;;;2611449;50;20415;-79
2022/01/29 09:56:23;;;;;;;15.70;13.20;;;8.20;99.90;;;;;;2608970;54;20910;-78
2022/01/29 09:58:49;;;;;;;24.37;12.17;;;8.20;99.90;;;;;;2608897;47;20170;-78
2022/01/29 10:01:16;;;;;;;18.67;12.80;;;8.30;99.90;;;;;;2613285;39;20644;-79
2022/01/29 10:04:01;;;;;;;15.50;11.77;;;8.30;99.90;;;;;;2611098;54;20401;-79
2022/01/29 10:06:27;;;;;;;17.20;12.80;;;8.30;99.90;;;;;;2611464;47;20466;-78
2022/01/29 10:08:55;;;;;;;12.80;9.97;;;8.40;99.90;;;;;;2611433;54;20419;-79
2022/01/29 10:11:23;;;;;;;16.93;12.10;;;8.40;99.90;;;;;;2611150;47;20419;-78
2022/01/29 10:13:49;;;;;;;20.37;15.07;;;8.40;99.90;;;;;;2613169;47;20967;-79
2022/01/29 10:16:20;;;;;;;15.37;12.60;;;8.50;99.90;;;;;;2612358;47;20439;-79
2022/01/29 10:19:04;;;;;;;28.50;16.37;;;8.50;99.90;;;;;;2612260;54;20414;-79
2022/01/29 10:21:51;;;;;;;17.23;13.87;;;8.50;99.90;;;;;;2612758;47;20427;-79
2022/01/29 10:24:21;;;;;;;15.53;13.27;;;8.50;99.90;;;;;;2614012;47;20439;-79
2022/01/29 10:26:49;;;;;;;18.23;16.40;;;8.50;99.90;;;;;;2614100;54;20415;-79
2022/01/29 10:29:23;;;;;;;15.30;13.40;;;8.60;99.90;;;;;;2614857;54;20433;-79
2022/01/29 10:31:51;;;;;;;21.60;15.20;;;8.60;99.90;;;;;;2614595;54;20948;-79
2022/01/29 10:34:21;;;;;;;14.80;12.57;;;8.60;99.90;;;;;;2611779;54;21061;-79
2022/01/29 10:37:19;;;;;;;17.23;10.97;;;8.70;99.90;;;;;;2612540;54;20423;-79
2022/01/29 10:39:49;;;;;;;19.47;13.30;;;8.70;99.90;;;;;;2614192;47;20495;-80
2022/01/29 10:42:22;;;;;;;16.30;14.20;;;8.80;99.90;;;;;;2614314;47;20411;-79
2022/01/29 10:44:51;;;;;;;16.27;12.03;;;8.70;99.90;;;;;;2613983;54;20551;-79
2022/01/29 10:47:18;;;;;;;19.13;11.83;;;8.70;99.90;;;;;;2614232;54;20419;-79
2022/01/29 10:49:51;;;;;;;16.67;12.00;;;8.70;99.90;;;;;;2611671;54;20990;-79
2022/01/29 10:52:18;;;;;;;12.17;9.83;;;8.70;99.90;;;;;;2614630;39;20868;-79
2022/01/29 10:54:49;;;;;;;17.10;14.00;;;8.70;99.90;;;;;;2614431;54;20454;-79
2022/01/29 10:57:43;;;;;;;16.80;14.00;;;8.70;99.90;;;;;;2613782;54;20399;-79
2022/01/29 11:00:24;;;;;;;15.93;11.60;;;8.70;99.90;;;;;;2613285;54;20435;-79
2022/01/29 11:02:53;;;;;;;17.17;13.20;;;8.70;99.90;;;;;;2613188;54;20405;-79
2022/01/29 11:05:24;;;;;;;13.60;10.83;;;8.70;99.90;;;;;;2613915;54;20411;-79
2022/01/29 11:07:52;;;;;;;16.00;11.60;;;8.70;99.90;;;;;;2613894;54;21046;-79
2022/01/29 11:10:19;;;;;;;16.53;11.53;;;8.80;99.90;;;;;;2611649;54;21015;-79
2022/01/29 11:12:48;;;;;;;17.07;11.40;;;8.80;99.90;;;;;;2609409;54;20418;-80
2022/01/29 11:15:19;;;;;;;13.80;10.30;;;8.80;99.90;;;;;;2609990;54;20527;-78
2022/01/29 11:17:46;;;;;;;18.10;16.20;;;8.90;99.90;;;;;;2610918;54;20469;-78
2022/01/29 11:20:12;;;;;;;18.30;15.50;;;8.90;99.90;;;;;;2611730;54;21063;-79
2022/01/29 11:22:45;;;;;;;18.30;15.73;;;9.00;99.90;;;;;;2611190;47;20457;-79
2022/01/29 11:25:24;;;;;;;17.30;13.10;;;9.10;99.90;;;;;;2610078;47;21029;-80
2022/01/29 11:28:15;;;;;;;11.53;9.90;;;9.00;99.90;;;;;;2610528;47;20425;-79
2022/01/29 11:30:47;;;;;;;13.30;11.10;;;9.10;99.90;;;;;;2608442;54;20419;-80
2022/01/29 11:33:13;;;;;;;12.73;9.73;;;9.00;99.90;;;;;;2612975;54;20968;-79
2022/01/29 11:35:56;;;;;;;16.17;11.13;;;9.00;99.90;;;;;;2613262;39;20833;-78
2022/01/29 11:38:30;;;;;;;13.07;10.83;;;9.00;99.90;;;;;;2611726;47;21199;-79
2022/01/29 11:40:58;;;;;;;21.27;12.10;;;9.00;99.90;;;;;;2614007;46;20439;-79
2022/01/29 11:43:30;;;;;;;15.43;13.77;;;9.00;99.90;;;;;;2613362;54;20417;-79
2022/01/29 11:46:10;;;;;;;13.67;11.07;;;9.00;99.90;;;;;;2613716;39;20809;-78
2022/01/29 11:48:51;;;;;;;19.43;13.10;;;9.00;99.90;;;;;;2615268;54;20418;-79
2022/01/29 11:51:41;;;;;;;17.60;11.67;;;9.10;99.90;;;;;;2613252;54;20420;-79
2022/01/29 11:54:08;;;;;;;16.17;12.27;;;9.10;99.90;;;;;;2611984;47;20432;-78
2022/01/29 11:56:35;;;;;;;13.83;12.10;;;9.10;99.90;;;;;;2611870;54;21510;-78
2022/01/29 11:59:24;;;;;;;13.80;11.27;;;9.20;99.90;;;;;;2613798;54;20415;-79
2022/01/29 12:02:21;;;;;;;16.17;11.37;;;9.20;99.90;;;;;;2614484;46;20538;-78
2022/01/29 12:04:51;;;;;;;13.30;11.87;;;9.30;99.90;;;;;;2615396;31;20867;-79
2022/01/29 12:07:35;;;;;;;12.80;11.20;;;9.40;99.90;;;;;;2614694;54;20438;-78
2022/01/29 12:10:11;;;;;;;11.50;10.20;;;9.40;99.90;;;;;;2612722;47;20419;-79
2022/01/29 12:12:39;;;;;;;16.13;9.40;;;9.50;99.90;;;;;;2608932;47;20413;-79
2022/01/29 12:15:11;;;;;;;9.90;8.90;;;9.60;99.90;;;;;;2610924;54;20443;-80
2022/01/29 12:17:52;;;;;;;13.13;11.30;;;9.70;99.90;;;;;;2608116;47;20423;-78
2022/01/29 12:20:22;;;;;;;10.77;9.63;;;9.60;99.90;;;;;;2612445;54;21051;-79
2022/01/29 12:22:50;;;;;;;11.73;10.60;;;9.60;99.90;;;;;;2610855;54;20519;-81
2022/01/29 12:25:26;;;;;;;10.10;9.10;;;9.60;99.90;;;;;;2613228;54;20408;-79
2022/01/29 12:28:01;;;;;;;9.07;8.27;;;9.60;99.90;;;;;;2613911;39;20822;-78
2022/01/29 12:30:32;;;;;;;10.63;9.50;;;9.70;99.90;;;;;;2611536;47;20443;-79
2022/01/29 12:33:01;;;;;;;8.50;6.90;;;9.70;99.90;;;;;;2613042;47;20429;-78
2022/01/29 12:35:34;;;;;;;11.73;9.70;;;9.70;99.90;;;;;;2610470;47;20871;-78
2022/01/29 12:38:00;;;;;;;7.90;6.93;;;9.80;99.90;;;;;;2611363;46;20474;-78
2022/01/29 12:40:27;;;;;;;9.97;8.77;;;9.80;99.90;;;;;;2608457;54;20414;-79
2022/01/29 12:42:57;;;;;;;8.63;8.03;;;9.80;99.90;;;;;;2611325;47;20424;-78
2022/01/29 12:45:26;;;;;;;8.67;7.77;;;9.80;99.90;;;;;;2612010;47;20427;-79
2022/01/29 12:48:09;;;;;;;12.47;11.27;;;9.90;99.90;;;;;;2611071;39;20821;-78
2022/01/29 12:50:36;;;;;;;8.80;8.03;;;10.00;99.90;;;;;;2610550;54;20447;-78
2022/01/29 12:53:12;;;;;;;8.20;7.40;;;10.00;99.90;;;;;;2610247;54;22488;-77
2022/01/29 12:55:39;;;;;;;10.17;9.37;;;9.90;99.90;;;;;;2610988;54;20458;-79